KNOW

Port Angeles CGas Airport

Port Angeles, Washington, USA
METAR KNOW 260355Z AUTO 27014G22KT 10SM CLR 11/07 A3004 RMK AO2 T01130071
Observed Flight Rules
May-26 @ 03:55 UTC (21 minutes ago) Visual Flight Rules
Wind Visibility Clouds
270° at 14 knots
 Gusting to 22 knots
10 miles
  • Clear skies
Temperatures Readings
Current 11°C / 52°F
Dewpoint 7°C / 45°F
Humidity 77%
Altimeter 30.04" Hg
Pressure 1017 hPa
Elevation 4
METAR KNOW 260355Z AUTO 27014G22KT 10SM CLR 11/07 A3004 RMK AO2 T01130071
Observed Flight Rules
May-26 @ 03:55 UTC
(21 minutes ago)
VFR
Wind Visibility
270° at 14 knots
 Gusting to 22 knots
10 miles
Clouds
  • Clear skies
Temperature Dewpoint
11°C / 52°F 7°C / 45°F
Humidity Altimeter Pressure
77% 30.04" Hg 1017 hPa